In Rescue
 
Open Full Screen Window  High Contrast Mode
Wind Gusting 00 knots
04
May 25, 2022 8:08 PM CDT
Weather Information
Wind Direction
  070 °
Wind Speed
  04 kt (5 mph)
Wind Gust
  00 kt (0 mph)
Altimeter
29.93 in
Visibility
10 SM
Temperature
11° C
52° F
Dewpoint
08° C
46° F
Humidity
82%
1hr Rain Fall
00.00 in.
24hr Rain Fall
00.00 in.
Sky Condition
Overcast @ 2,600 ft
Broken @ 2,100 ft
MVFR

METAR KBBB 260108Z AUTO 07004KT 10SM BKN021 OVC026 11/08 A2993 RMK AO2

FAA Disclaimer: The data displayed is for advisory purposes only and is not to be used for flight planning or operations.